createdAt,value
2018-04-15T00:00:16.387Z,992.62
2018-04-15T00:02:09.233Z,992.62
2018-04-15T00:03:09.134Z,992.64
2018-04-15T00:05:01.921Z,992.65
2018-04-15T00:06:01.780Z,992.63
2018-04-15T00:07:55.045Z,992.59
2018-04-15T00:08:54.944Z,992.60
2018-04-15T00:10:47.706Z,992.60
2018-04-15T00:11:47.590Z,992.56
2018-04-15T00:13:40.859Z,992.57
2018-04-15T00:14:40.771Z,992.54
2018-04-15T00:16:33.512Z,992.58
2018-04-15T00:17:33.397Z,992.53
2018-04-15T00:19:26.369Z,992.56
2018-04-15T00:20:26.239Z,992.55
2018-04-15T00:22:19.021Z,992.48
2018-04-15T00:23:18.903Z,992.45
2018-04-15T00:25:12.144Z,992.40
2018-04-15T00:26:12.088Z,992.40
2018-04-15T00:28:04.844Z,992.35
2018-04-15T00:29:04.701Z,992.35
2018-04-15T00:30:57.471Z,992.29
2018-04-15T00:31:57.345Z,992.29
2018-04-15T00:33:50.106Z,992.27
2018-04-15T00:34:50.014Z,992.24
2018-04-15T00:36:42.767Z,992.22
2018-04-15T00:37:42.660Z,992.21
2018-04-15T00:39:35.404Z,992.19
2018-04-15T00:40:35.286Z,992.21
2018-04-15T00:42:28.135Z,992.17
2018-04-15T00:43:28.040Z,992.21
2018-04-15T00:45:20.887Z,992.20
2018-04-15T00:46:20.680Z,992.20
2018-04-15T00:48:13.432Z,992.20
2018-04-15T00:49:13.329Z,992.17
2018-04-15T00:51:06.207Z,992.16
2018-04-15T00:52:06.085Z,992.13
2018-04-15T00:53:58.845Z,992.11
2018-04-15T00:54:58.722Z,992.18
2018-04-15T00:56:51.470Z,992.14
2018-04-15T00:57:51.369Z,992.13
2018-04-15T00:59:44.225Z,992.10
2018-04-15T01:00:44.131Z,992.13
2018-04-15T01:02:38.509Z,992.03
2018-04-15T01:03:38.445Z,992.04
2018-04-15T01:05:31.251Z,992.03
2018-04-15T01:06:31.059Z,991.97
2018-04-15T01:08:24.013Z,992.00
2018-04-15T01:09:23.902Z,992.00
2018-04-15T01:11:16.659Z,991.98
2018-04-15T01:12:16.560Z,991.96
2018-04-15T01:14:09.325Z,991.97
2018-04-15T01:15:09.226Z,991.94
2018-04-15T01:17:02.086Z,991.93
2018-04-15T01:18:01.954Z,991.90
2018-04-15T01:19:54.723Z,991.88
2018-04-15T01:20:54.602Z,991.87
2018-04-15T01:22:47.460Z,991.87
2018-04-15T01:23:47.400Z,991.81
2018-04-15T01:25:40.099Z,991.79
2018-04-15T01:26:39.994Z,991.82
2018-04-15T01:28:32.767Z,991.79
2018-04-15T01:29:32.649Z,991.81
2018-04-15T01:31:25.922Z,991.75
2018-04-15T01:32:25.805Z,991.75
2018-04-15T01:34:18.674Z,991.71
2018-04-15T01:35:18.546Z,991.69
2018-04-15T01:37:11.292Z,991.72
2018-04-15T01:38:11.205Z,991.70
2018-04-15T01:40:03.966Z,991.72
2018-04-15T01:41:03.863Z,991.71
2018-04-15T01:42:56.589Z,991.70
2018-04-15T01:43:56.519Z,991.65
2018-04-15T01:45:49.353Z,991.64
2018-04-15T01:46:49.251Z,991.62
2018-04-15T01:48:41.988Z,991.62
2018-04-15T01:49:41.895Z,991.59
2018-04-15T01:51:34.653Z,991.61
2018-04-15T01:52:34.535Z,991.62
2018-04-15T01:54:27.315Z,991.58
2018-04-15T01:55:27.318Z,991.60
2018-04-15T01:57:19.953Z,991.54
2018-04-15T01:58:19.839Z,991.56
2018-04-15T02:00:12.613Z,991.59
2018-04-15T02:01:12.479Z,991.55
2018-04-15T02:03:05.232Z,991.52
2018-04-15T02:04:05.144Z,991.50
2018-04-15T02:05:57.905Z,991.51
2018-04-15T02:06:57.786Z,991.48
2018-04-15T02:08:50.540Z,991.54
2018-04-15T02:09:50.424Z,991.50
2018-04-15T02:11:43.730Z,991.45
2018-04-15T02:12:43.608Z,991.47
2018-04-15T02:14:36.322Z,991.47
2018-04-15T02:15:36.243Z,991.47
2018-04-15T02:17:28.984Z,991.45
2018-04-15T02:18:28.884Z,991.44
2018-04-15T02:20:21.614Z,991.46
2018-04-15T02:21:21.524Z,991.46
2018-04-15T02:23:14.279Z,991.43
2018-04-15T02:24:14.194Z,991.42
2018-04-15T02:26:07.013Z,991.40
2018-04-15T02:27:06.915Z,991.37
2018-04-15T02:28:59.678Z,991.32
2018-04-15T02:29:59.561Z,991.30
2018-04-15T02:31:52.318Z,991.31
2018-04-15T02:32:52.226Z,991.27
2018-04-15T02:34:44.979Z,991.19
2018-04-15T02:35:44.864Z,991.17
2018-04-15T02:37:37.605Z,991.17
2018-04-15T02:38:37.523Z,991.20
2018-04-15T02:40:30.391Z,991.20
2018-04-15T02:41:30.273Z,991.20
2018-04-15T02:43:23.006Z,991.19
2018-04-15T02:44:22.907Z,991.16
2018-04-15T02:46:15.661Z,991.14
2018-04-15T02:47:15.564Z,991.10
2018-04-15T02:49:08.408Z,991.09
2018-04-15T02:50:08.299Z,991.06
2018-04-15T02:52:01.049Z,991.02
2018-04-15T02:53:00.957Z,990.99
2018-04-15T02:54:53.836Z,990.95
2018-04-15T02:55:53.712Z,990.95
2018-04-15T02:57:46.564Z,990.94
2018-04-15T02:58:46.448Z,990.95
2018-04-15T03:00:39.746Z,990.98
2018-04-15T03:01:39.604Z,990.94
2018-04-15T03:03:32.359Z,990.93
2018-04-15T03:04:32.251Z,990.86
2018-04-15T03:06:25.019Z,990.85
2018-04-15T03:07:24.913Z,990.77
2018-04-15T03:09:17.663Z,990.76
2018-04-15T03:10:17.552Z,990.75
2018-04-15T03:12:10.321Z,990.74
2018-04-15T03:13:10.205Z,990.75
2018-04-15T03:15:03.044Z,990.71
2018-04-15T03:16:02.941Z,990.74
2018-04-15T03:17:55.732Z,990.73
2018-04-15T03:18:55.593Z,990.69
2018-04-15T03:20:48.855Z,990.68
2018-04-15T03:21:48.751Z,990.68
2018-04-15T03:23:41.509Z,990.67
2018-04-15T03:24:41.503Z,990.66
2018-04-15T03:26:34.149Z,990.65
2018-04-15T03:27:34.046Z,990.63
2018-04-15T03:29:26.816Z,990.66
2018-04-15T03:30:26.697Z,990.61
2018-04-15T03:32:19.947Z,990.60
2018-04-15T03:33:19.863Z,990.59
2018-04-15T03:35:13.134Z,990.56
2018-04-15T03:36:13.098Z,990.49
2018-04-15T03:38:05.755Z,990.47
2018-04-15T03:39:05.659Z,990.43
2018-04-15T03:40:58.510Z,990.45
2018-04-15T03:41:58.409Z,990.41
2018-04-15T03:43:51.204Z,990.40
2018-04-15T03:44:51.055Z,990.35
2018-04-15T03:46:43.801Z,990.38
2018-04-15T03:47:43.706Z,990.38
2018-04-15T03:49:36.469Z,990.36
2018-04-15T03:50:36.352Z,990.37
2018-04-15T03:52:29.109Z,990.31
2018-04-15T03:53:29.023Z,990.31
2018-04-15T03:55:21.753Z,990.27
2018-04-15T03:56:21.642Z,990.32
2018-04-15T03:58:14.908Z,990.24
2018-04-15T03:59:14.800Z,990.25
2018-04-15T04:01:07.686Z,990.24
2018-04-15T04:02:07.585Z,990.22
2018-04-15T04:04:00.396Z,990.20
2018-04-15T04:05:00.312Z,990.18
2018-04-15T04:06:54.603Z,990.20
2018-04-15T04:07:54.494Z,990.17
2018-04-15T04:09:47.234Z,990.18
2018-04-15T04:10:47.127Z,990.22
2018-04-15T04:12:39.905Z,990.23
2018-04-15T04:13:39.779Z,990.23
2018-04-15T04:15:32.526Z,990.23
2018-04-15T04:16:32.487Z,990.27
2018-04-15T04:18:25.186Z,990.30
2018-04-15T04:19:25.068Z,990.29
2018-04-15T04:21:17.929Z,990.27
2018-04-15T04:22:17.831Z,990.25
2018-04-15T04:24:10.671Z,990.23
2018-04-15T04:25:10.571Z,990.22
2018-04-15T04:27:03.314Z,990.24
2018-04-15T04:28:03.223Z,990.22
2018-04-15T04:29:56.075Z,990.23
2018-04-15T04:30:55.967Z,990.23
2018-04-15T04:32:48.720Z,990.24
2018-04-15T04:33:48.630Z,990.22
2018-04-15T04:35:41.393Z,990.17
2018-04-15T04:36:41.264Z,990.18
2018-04-15T04:38:34.020Z,990.13
2018-04-15T04:39:33.919Z,990.17
2018-04-15T04:41:26.657Z,990.16
2018-04-15T04:42:26.561Z,990.15
2018-04-15T04:44:19.330Z,990.16
2018-04-15T04:45:19.216Z,990.15
2018-04-15T04:47:11.962Z,990.19
2018-04-15T04:48:11.863Z,990.16
2018-04-15T04:50:04.641Z,990.17
2018-04-15T04:51:04.498Z,990.17
2018-04-15T04:52:57.245Z,990.17
2018-04-15T04:53:57.159Z,990.15
2018-04-15T04:55:50.021Z,990.17
2018-04-15T04:56:49.916Z,990.14
2018-04-15T04:58:42.644Z,990.17
2018-04-15T04:59:42.547Z,990.15
2018-04-15T05:01:35.814Z,990.14
2018-04-15T05:02:35.709Z,990.15
2018-04-15T05:04:28.547Z,990.11
2018-04-15T05:05:28.453Z,990.09
2018-04-15T05:07:21.228Z,990.09
2018-04-15T05:08:21.119Z,990.16
2018-04-15T05:10:13.866Z,990.15
2018-04-15T05:11:13.762Z,990.17
2018-04-15T05:13:06.516Z,990.14
2018-04-15T05:14:06.405Z,990.15
2018-04-15T05:15:59.168Z,990.22
2018-04-15T05:16:59.045Z,990.20
2018-04-15T05:18:52.300Z,990.22
2018-04-15T05:19:52.203Z,990.21
2018-04-15T05:21:44.980Z,990.19
2018-04-15T05:22:44.872Z,990.21
2018-04-15T05:24:37.689Z,990.19
2018-04-15T05:25:37.604Z,990.18
2018-04-15T05:27:30.357Z,990.15
2018-04-15T05:28:30.254Z,990.16
2018-04-15T05:30:23.513Z,990.18
2018-04-15T05:31:23.407Z,990.15
2018-04-15T05:33:16.167Z,990.20
2018-04-15T05:34:16.063Z,990.20
2018-04-15T05:36:08.895Z,990.18
2018-04-15T05:37:08.799Z,990.15
2018-04-15T05:39:01.751Z,990.20
2018-04-15T05:40:01.655Z,990.18
2018-04-15T05:41:54.419Z,990.15
2018-04-15T05:42:54.314Z,990.15
2018-04-15T05:44:47.074Z,990.13
2018-04-15T05:45:46.951Z,990.12
2018-04-15T05:47:39.699Z,990.07
2018-04-15T05:48:39.603Z,990.12
2018-04-15T05:50:32.884Z,990.11
2018-04-15T05:51:32.749Z,990.14
2018-04-15T05:53:25.505Z,990.14
2018-04-15T05:54:25.434Z,990.18
2018-04-15T05:56:18.251Z,990.17
2018-04-15T05:57:18.171Z,990.14
2018-04-15T05:59:10.899Z,990.15
2018-04-15T06:00:10.795Z,990.11
2018-04-15T06:02:03.675Z,990.09
2018-04-15T06:03:03.540Z,990.08
2018-04-15T06:04:56.808Z,990.11
2018-04-15T06:05:56.734Z,990.13
2018-04-15T06:07:49.478Z,990.08
2018-04-15T06:08:49.384Z,990.13
2018-04-15T06:10:42.190Z,990.09
2018-04-15T06:11:42.109Z,990.04
2018-04-15T06:13:35.457Z,990.08
2018-04-15T06:14:35.266Z,990.08
2018-04-15T06:16:28.043Z,990.06
2018-04-15T06:17:27.934Z,990.02
2018-04-15T06:19:21.192Z,989.99
2018-04-15T06:20:21.066Z,989.99
2018-04-15T06:22:13.836Z,989.97
2018-04-15T06:23:13.735Z,990.02
2018-04-15T06:25:06.591Z,989.99
2018-04-15T06:26:06.362Z,989.97
2018-04-15T06:27:59.115Z,989.99
2018-04-15T06:28:59.019Z,990.03
2018-04-15T06:30:51.777Z,990.06
2018-04-15T06:31:51.659Z,990.07
2018-04-15T06:33:44.919Z,990.09
2018-04-15T06:34:44.822Z,990.07
2018-04-15T06:36:37.583Z,990.12
2018-04-15T06:37:37.469Z,990.11
2018-04-15T06:39:30.227Z,990.18
2018-04-15T06:40:30.136Z,990.17
2018-04-15T06:42:22.861Z,990.14
2018-04-15T06:43:22.779Z,990.14
2018-04-15T06:45:15.619Z,990.14
2018-04-15T06:46:15.501Z,990.18
2018-04-15T06:48:08.774Z,990.17
2018-04-15T06:49:08.692Z,990.19
2018-04-15T06:51:01.425Z,990.17
2018-04-15T06:52:01.313Z,990.13
2018-04-15T06:53:54.061Z,990.14
2018-04-15T06:54:53.972Z,990.15
2018-04-15T06:56:46.721Z,990.18
2018-04-15T06:57:46.615Z,990.23
2018-04-15T06:59:39.349Z,990.22
2018-04-15T07:00:39.257Z,990.22
2018-04-15T07:02:32.113Z,990.16
2018-04-15T07:03:32.001Z,990.13
2018-04-15T07:05:24.772Z,990.10
2018-04-15T07:06:24.663Z,990.13
2018-04-15T07:08:17.457Z,990.12
2018-04-15T07:09:17.305Z,990.14
2018-04-15T07:11:10.150Z,990.15
2018-04-15T07:12:10.026Z,990.14
2018-04-15T07:14:02.713Z,990.16
2018-04-15T07:15:02.619Z,990.12
2018-04-15T07:16:55.438Z,990.06
2018-04-15T07:17:55.376Z,990.12
2018-04-15T07:19:48.132Z,990.09
2018-04-15T07:20:47.999Z,990.07
2018-04-15T07:22:40.744Z,990.09
2018-04-15T07:23:40.638Z,990.11
2018-04-15T07:25:33.510Z,990.09
2018-04-15T07:26:33.397Z,990.15
2018-04-15T07:28:26.137Z,990.11
2018-04-15T07:29:26.033Z,990.15
2018-04-15T07:31:18.902Z,990.15
2018-04-15T07:32:18.683Z,990.16
2018-04-15T07:34:11.428Z,990.16
2018-04-15T07:35:11.342Z,990.17
2018-04-15T07:37:04.137Z,990.20
2018-04-15T07:38:03.993Z,990.19
2018-04-15T07:39:56.717Z,990.15
2018-04-15T07:40:56.649Z,990.12
2018-04-15T07:42:49.422Z,990.10
2018-04-15T07:43:49.310Z,990.16
2018-04-15T07:45:43.554Z,990.16
2018-04-15T07:46:43.449Z,990.15
2018-04-15T07:48:36.730Z,990.17
2018-04-15T07:49:36.610Z,990.13
2018-04-15T07:51:29.894Z,990.15
2018-04-15T07:52:29.776Z,990.10
2018-04-15T07:54:22.523Z,990.14
2018-04-15T07:55:22.427Z,990.13
2018-04-15T07:57:15.213Z,990.13
2018-04-15T07:58:15.072Z,990.15
2018-04-15T08:00:07.911Z,990.12
2018-04-15T08:01:07.708Z,990.15
2018-04-15T08:03:00.575Z,990.11
2018-04-15T08:04:00.468Z,990.11
2018-04-15T08:05:53.299Z,990.14
2018-04-15T08:06:53.216Z,990.11
2018-04-15T08:08:45.966Z,990.16
2018-04-15T08:09:45.865Z,990.16
2018-04-15T08:11:38.611Z,990.11
2018-04-15T08:12:38.507Z,990.07
2018-04-15T08:14:31.264Z,990.14
2018-04-15T08:15:31.192Z,990.13
2018-04-15T08:17:24.006Z,990.13
2018-04-15T08:18:23.900Z,990.10
2018-04-15T08:20:16.656Z,990.10
2018-04-15T08:21:16.557Z,990.12
2018-04-15T08:23:09.810Z,990.08
2018-04-15T08:24:09.718Z,990.09
2018-04-15T08:26:02.489Z,990.11
2018-04-15T08:27:02.361Z,990.11
2018-04-15T08:28:55.215Z,990.09
2018-04-15T08:29:55.114Z,990.09
2018-04-15T08:31:47.882Z,990.08
2018-04-15T08:32:47.781Z,990.10
2018-04-15T08:34:40.518Z,990.13
2018-04-15T08:35:40.414Z,990.13
2018-04-15T08:37:33.161Z,990.12
2018-04-15T08:38:33.049Z,990.10
2018-04-15T08:40:25.810Z,990.08
2018-04-15T08:41:25.697Z,990.04
2018-04-15T08:43:18.603Z,990.12
2018-04-15T08:44:18.455Z,990.10
2018-04-15T08:46:11.208Z,990.07
2018-04-15T08:47:11.104Z,990.10
2018-04-15T08:49:03.831Z,990.02
2018-04-15T08:50:03.746Z,990.01
2018-04-15T08:51:56.517Z,990.06
2018-04-15T08:52:56.411Z,990.03
2018-04-15T08:54:49.244Z,990.05
2018-04-15T08:55:49.135Z,990.02
2018-04-15T08:57:41.895Z,990.03
2018-04-15T08:58:41.790Z,990.02
2018-04-15T09:00:34.738Z,990.06
2018-04-15T09:01:34.428Z,990.01
2018-04-15T09:03:27.177Z,990.02
2018-04-15T09:04:27.092Z,990.06
2018-04-15T09:06:19.837Z,990.04
2018-04-15T09:07:19.746Z,990.05
2018-04-15T09:09:12.595Z,990.02
2018-04-15T09:10:12.471Z,990.03
2018-04-15T09:12:05.228Z,990.05
2018-04-15T09:13:05.143Z,989.96
2018-04-15T09:14:57.881Z,989.96
2018-04-15T09:15:57.776Z,989.96
2018-04-15T09:17:50.609Z,989.96
2018-04-15T09:18:50.524Z,989.92
2018-04-15T09:20:43.390Z,989.94
2018-04-15T09:21:43.268Z,989.94
2018-04-15T09:26:32.912Z,989.93
2018-04-15T09:27:32.779Z,989.89
2018-04-15T09:29:25.684Z,989.93
2018-04-15T09:30:25.529Z,989.95
2018-04-15T09:32:18.260Z,989.87
2018-04-15T09:33:18.159Z,989.89
2018-04-15T09:35:10.920Z,989.80
2018-04-15T09:36:11.417Z,989.81
2018-04-15T09:38:03.665Z,989.81
2018-04-15T09:39:03.455Z,989.79
2018-04-15T09:40:56.331Z,989.79
2018-04-15T09:41:56.223Z,989.84
2018-04-15T09:43:48.953Z,989.87
2018-04-15T09:44:48.846Z,989.86
2018-04-15T09:46:42.138Z,989.87
2018-04-15T09:47:42.032Z,989.90
2018-04-15T09:49:34.853Z,989.85
2018-04-15T09:50:34.763Z,989.88
2018-04-15T09:52:27.514Z,989.89
2018-04-15T09:53:27.417Z,989.90
2018-04-15T09:55:20.162Z,989.83
2018-04-15T09:56:20.074Z,989.81
2018-04-15T09:58:12.821Z,989.74
2018-04-15T09:59:12.719Z,989.69
2018-04-15T10:01:05.586Z,989.68
2018-04-15T10:02:05.461Z,989.66
2018-04-15T10:03:58.322Z,989.63
2018-04-15T10:04:58.198Z,989.67
2018-04-15T10:06:50.969Z,989.71
2018-04-15T10:07:50.847Z,989.73
2018-04-15T10:09:43.704Z,989.69
2018-04-15T10:10:43.499Z,989.70
2018-04-15T10:12:36.362Z,989.67
2018-04-15T10:13:36.235Z,989.67
2018-04-15T10:15:29.019Z,989.59
2018-04-15T10:16:28.890Z,989.59
2018-04-15T10:18:21.653Z,989.56
2018-04-15T10:19:21.545Z,989.58
2018-04-15T10:21:14.386Z,989.54
2018-04-15T10:22:14.183Z,989.52
2018-04-15T10:24:06.940Z,989.48
2018-04-15T10:25:06.833Z,989.45
2018-04-15T10:26:59.576Z,989.43
2018-04-15T10:27:59.501Z,989.50
2018-04-15T10:29:52.353Z,989.50
2018-04-15T10:30:52.235Z,989.54
2018-04-15T10:32:44.987Z,989.49
2018-04-15T10:33:44.873Z,989.46
2018-04-15T10:35:37.750Z,989.40
2018-04-15T10:36:37.527Z,989.36
2018-04-15T10:38:30.383Z,989.24
2018-04-15T10:39:30.274Z,989.26
2018-04-15T10:41:24.055Z,989.28
2018-04-15T10:42:23.953Z,989.27
2018-04-15T10:44:16.700Z,989.21
2018-04-15T10:45:16.589Z,989.14
2018-04-15T10:47:09.888Z,989.15
2018-04-15T10:48:09.760Z,989.18
2018-04-15T10:50:02.610Z,989.18
2018-04-15T10:51:02.517Z,989.19
2018-04-15T10:52:55.387Z,989.18
2018-04-15T10:53:55.248Z,989.17
2018-04-15T10:55:47.997Z,989.20
2018-04-15T10:56:47.909Z,989.17
2018-04-15T10:58:41.275Z,989.14
2018-04-15T10:59:41.072Z,989.11
2018-04-15T11:01:33.917Z,989.09
2018-04-15T11:02:33.808Z,989.07
2018-04-15T11:04:26.665Z,989.06
2018-04-15T11:05:26.575Z,989.04
2018-04-15T11:07:19.305Z,988.99
2018-04-15T11:08:19.202Z,988.96
2018-04-15T11:10:12.053Z,988.91
2018-04-15T11:11:11.965Z,988.93
2018-04-15T11:13:04.740Z,988.90
2018-04-15T11:14:08.332Z,988.89
2018-04-15T11:15:57.442Z,988.89
2018-04-15T11:16:57.350Z,988.90
2018-04-15T11:18:50.110Z,988.96
2018-04-15T11:19:49.994Z,988.96
2018-04-15T11:21:42.841Z,988.90
2018-04-15T11:22:42.759Z,988.89
2018-04-15T11:24:35.608Z,988.90
2018-04-15T11:25:35.510Z,988.89
2018-04-15T11:27:28.268Z,988.82
2018-04-15T11:28:28.180Z,988.83
2018-04-15T11:30:21.016Z,988.77
2018-04-15T11:31:20.890Z,988.76
2018-04-15T11:33:14.242Z,988.75
2018-04-15T11:34:14.151Z,988.80
2018-04-15T11:36:07.031Z,988.81
2018-04-15T11:37:06.867Z,988.85
2018-04-15T11:38:59.674Z,988.77
2018-04-15T11:39:59.548Z,988.76
2018-04-15T11:41:52.420Z,988.73
2018-04-15T11:42:52.309Z,988.77
2018-04-15T11:44:45.159Z,988.74
2018-04-15T11:45:45.061Z,988.70
2018-04-15T11:47:37.914Z,988.73
2018-04-15T11:48:37.794Z,988.69
2018-04-15T11:50:30.546Z,988.72
2018-04-15T11:51:30.476Z,988.65
2018-04-15T11:53:23.215Z,988.60
2018-04-15T11:54:23.100Z,988.63
2018-04-15T11:56:16.462Z,988.57
2018-04-15T11:57:15.850Z,988.60
2018-04-15T11:59:08.623Z,988.56
2018-04-15T12:00:08.513Z,988.56
2018-04-15T12:02:01.335Z,988.53
2018-04-15T12:03:01.254Z,988.50
2018-04-15T12:04:54.023Z,988.51
2018-04-15T12:05:53.893Z,988.53
2018-04-15T12:07:46.746Z,988.48
2018-04-15T12:08:46.631Z,988.44
2018-04-15T12:10:39.520Z,988.45
2018-04-15T12:11:39.393Z,988.42
2018-04-15T12:13:32.224Z,988.39
2018-04-15T12:14:32.144Z,988.38
2018-04-15T12:16:24.999Z,988.42
2018-04-15T12:17:24.881Z,988.39
2018-04-15T12:19:17.758Z,988.35
2018-04-15T12:20:17.633Z,988.33
2018-04-15T12:22:10.394Z,988.31
2018-04-15T12:23:10.393Z,988.33
2018-04-15T12:25:03.146Z,988.29
2018-04-15T12:26:03.031Z,988.28
2018-04-15T12:27:55.895Z,988.28
2018-04-15T12:28:55.778Z,988.29
2018-04-15T12:30:48.525Z,988.24
2018-04-15T12:31:48.430Z,988.21
2018-04-15T12:33:41.333Z,988.14
2018-04-15T12:34:41.198Z,988.18
2018-04-15T12:36:34.036Z,988.12
2018-04-15T12:37:33.948Z,988.14
2018-04-15T12:39:27.425Z,988.11
2018-04-15T12:40:27.294Z,988.08
2018-04-15T12:42:20.152Z,988.00
2018-04-15T12:43:20.041Z,988.02
2018-04-15T12:45:12.920Z,988.00
2018-04-15T12:46:12.807Z,987.98
2018-04-15T12:48:05.654Z,987.98
2018-04-15T12:49:05.547Z,987.97
2018-04-15T12:50:58.420Z,987.97
2018-04-15T12:51:58.288Z,987.96
2018-04-15T12:53:51.148Z,987.89
2018-04-15T12:54:51.047Z,987.87
2018-04-15T12:56:43.911Z,987.85
2018-04-15T12:57:43.805Z,987.84
2018-04-15T12:59:36.678Z,987.84
2018-04-15T13:00:36.561Z,987.85
2018-04-15T13:02:29.427Z,987.80
2018-04-15T13:03:29.395Z,987.77
2018-04-15T13:05:22.546Z,987.79
2018-04-15T13:06:22.450Z,987.79
2018-04-15T13:08:15.323Z,987.79
2018-04-15T13:09:15.194Z,987.71
2018-04-15T13:11:08.070Z,987.69
2018-04-15T13:12:07.947Z,987.68
2018-04-15T13:14:00.813Z,987.66
2018-04-15T13:15:00.694Z,987.68
2018-04-15T13:16:54.129Z,987.63
2018-04-15T13:17:53.873Z,987.59
2018-04-15T13:19:46.720Z,987.66
2018-04-15T13:20:46.604Z,987.67
2018-04-15T13:22:39.475Z,987.65
2018-04-15T13:23:39.352Z,987.64
2018-04-15T13:25:32.236Z,987.70
2018-04-15T13:26:32.118Z,987.68
2018-04-15T13:28:24.982Z,987.69
2018-04-15T13:29:24.885Z,987.69
2018-04-15T13:31:17.752Z,987.72
2018-04-15T13:32:17.634Z,987.68
2018-04-15T13:34:10.965Z,987.65
2018-04-15T13:35:10.792Z,987.63
2018-04-15T13:37:04.031Z,987.62
2018-04-15T13:38:04.027Z,987.61
2018-04-15T13:39:56.770Z,987.63
2018-04-15T13:40:56.666Z,987.54
2018-04-15T13:42:49.545Z,987.52
2018-04-15T13:43:49.430Z,987.47
2018-04-15T13:45:42.269Z,987.48
2018-04-15T13:46:42.191Z,987.54
2018-04-15T13:48:35.057Z,987.51
2018-04-15T13:49:34.928Z,987.49
2018-04-15T13:51:27.775Z,987.47
2018-04-15T13:52:27.673Z,987.43
2018-04-15T13:54:20.560Z,987.32
2018-04-15T13:55:20.442Z,987.31
2018-04-15T13:57:13.278Z,987.24
2018-04-15T13:58:13.166Z,987.22
2018-04-15T14:00:06.064Z,987.23
2018-04-15T14:01:05.952Z,987.23
2018-04-15T14:02:59.268Z,987.21
2018-04-15T14:03:59.211Z,987.22
2018-04-15T14:05:53.485Z,987.16
2018-04-15T14:06:53.417Z,987.15
2018-04-15T14:08:46.232Z,987.15
2018-04-15T14:09:46.113Z,987.18
2018-04-15T14:11:39.033Z,987.21
2018-04-15T14:12:38.896Z,987.19
2018-04-15T14:14:31.712Z,987.21
2018-04-15T14:15:31.613Z,987.16
2018-04-15T14:17:24.476Z,987.12
2018-04-15T14:18:24.396Z,987.11
2018-04-15T14:20:17.639Z,987.13
2018-04-15T14:21:17.535Z,987.11
2018-04-15T14:23:10.422Z,987.14
2018-04-15T14:24:10.290Z,987.15
2018-04-15T14:26:03.106Z,987.11
2018-04-15T14:27:03.021Z,987.13
2018-04-15T14:28:55.905Z,987.05
2018-04-15T14:29:55.796Z,987.08
2018-04-15T14:31:48.620Z,987.09
2018-04-15T14:32:48.589Z,987.08
2018-04-15T14:34:41.465Z,987.06
2018-04-15T14:35:41.289Z,987.09
2018-04-15T14:37:34.143Z,987.07
2018-04-15T14:38:34.065Z,987.05
2018-04-15T14:40:26.872Z,986.99
2018-04-15T14:41:26.770Z,986.99
2018-04-15T14:43:19.619Z,986.96
2018-04-15T14:44:19.521Z,986.94
2018-04-15T14:46:12.893Z,987.02
2018-04-15T14:47:12.812Z,987.00
2018-04-15T14:49:05.622Z,986.95
2018-04-15T14:50:05.611Z,986.97
2018-04-15T14:51:58.523Z,986.96
2018-04-15T14:52:58.279Z,986.92
2018-04-15T14:54:51.125Z,986.89
2018-04-15T14:55:51.045Z,986.98
2018-04-15T14:57:43.889Z,986.92
2018-04-15T14:58:43.789Z,986.92
2018-04-15T15:00:36.626Z,986.90
2018-04-15T15:01:36.538Z,986.87
2018-04-15T15:03:29.398Z,986.91
2018-04-15T15:04:29.285Z,986.95
2018-04-15T15:06:22.538Z,986.95
2018-04-15T15:07:22.457Z,986.96
2018-04-15T15:09:15.335Z,986.89
2018-04-15T15:10:15.197Z,986.93
2018-04-15T15:12:08.063Z,986.92
2018-04-15T15:13:07.952Z,986.92
2018-04-15T15:15:00.809Z,986.93
2018-04-15T15:16:00.687Z,986.91
2018-04-15T15:17:53.534Z,986.89
2018-04-15T15:18:53.474Z,986.88
2018-04-15T15:20:46.302Z,986.86
2018-04-15T15:21:46.203Z,986.84
2018-04-15T15:23:39.025Z,986.81
2018-04-15T15:24:38.960Z,986.81
2018-04-15T15:26:31.817Z,986.83
2018-04-15T15:27:31.685Z,986.81
2018-04-15T15:29:24.535Z,986.84
2018-04-15T15:30:24.521Z,986.85
2018-04-15T15:32:17.310Z,986.86
2018-04-15T15:33:17.204Z,986.90
2018-04-15T15:35:10.025Z,986.88
2018-04-15T15:36:09.927Z,986.87
2018-04-15T15:38:02.797Z,986.81
2018-04-15T15:39:02.695Z,986.80
2018-04-15T15:40:55.546Z,986.86
2018-04-15T15:41:55.445Z,986.85
2018-04-15T15:43:48.313Z,986.72
2018-04-15T15:44:48.193Z,986.70
2018-04-15T15:46:41.050Z,986.68
2018-04-15T15:47:40.945Z,986.75
2018-04-15T15:49:33.811Z,986.78
2018-04-15T15:50:33.689Z,986.73
2018-04-15T15:52:26.536Z,986.77
2018-04-15T15:53:26.440Z,986.75
2018-04-15T15:55:19.312Z,986.72
2018-04-15T15:56:19.189Z,986.68
2018-04-15T15:58:12.041Z,986.62
2018-04-15T15:59:11.937Z,986.65
2018-04-15T16:01:05.322Z,986.62
2018-04-15T16:02:04.705Z,986.63
2018-04-15T16:03:57.538Z,986.58
2018-04-15T16:04:57.447Z,986.62
2018-04-15T16:06:50.293Z,986.59
2018-04-15T16:07:50.186Z,986.62
2018-04-15T16:09:43.028Z,986.54
2018-04-15T16:10:42.939Z,986.56
2018-04-15T16:12:35.801Z,986.51
2018-04-15T16:13:35.715Z,986.54
2018-04-15T16:15:28.650Z,986.48
2018-04-15T16:16:28.569Z,986.53
2018-04-15T16:18:22.369Z,986.50
2018-04-15T16:19:22.221Z,986.48
2018-04-15T16:21:15.581Z,986.48
2018-04-15T16:22:15.466Z,986.52
2018-04-15T16:24:08.326Z,986.49
2018-04-15T16:25:08.223Z,986.48
2018-04-15T16:27:01.081Z,986.45
2018-04-15T16:28:01.023Z,986.51
2018-04-15T16:29:53.908Z,986.53
2018-04-15T16:30:53.720Z,986.54
2018-04-15T16:32:46.585Z,986.57
2018-04-15T16:33:46.530Z,986.60
2018-04-15T16:35:39.814Z,986.60
2018-04-15T16:36:39.737Z,986.61
2018-04-15T16:38:32.600Z,986.60
2018-04-15T16:39:32.526Z,986.60
2018-04-15T16:41:25.308Z,986.65
2018-04-15T16:42:25.229Z,986.63
2018-04-15T16:44:18.115Z,986.67
2018-04-15T16:45:17.979Z,986.72
2018-04-15T16:47:10.831Z,986.76
2018-04-15T16:48:10.745Z,986.75
2018-04-15T16:50:03.991Z,986.80
2018-04-15T16:51:03.889Z,986.80
2018-04-15T16:52:56.754Z,986.83
2018-04-15T16:53:56.664Z,986.85
2018-04-15T16:55:51.027Z,986.89
2018-04-15T16:56:50.934Z,986.90
2018-04-15T16:58:43.812Z,986.90
2018-04-15T16:59:43.676Z,986.88
2018-04-15T17:01:36.532Z,986.91
2018-04-15T17:02:36.431Z,986.93
2018-04-15T17:04:29.293Z,986.96
2018-04-15T17:05:29.187Z,986.94
2018-04-15T17:07:22.036Z,986.92
2018-04-15T17:08:21.938Z,986.91
2018-04-15T17:10:14.757Z,986.90
2018-04-15T17:11:14.763Z,986.92
2018-04-15T17:13:07.569Z,986.92
2018-04-15T17:14:07.425Z,986.97
2018-04-15T17:16:00.294Z,987.00
2018-04-15T17:17:00.175Z,986.97
2018-04-15T17:18:53.540Z,986.97
2018-04-15T17:19:53.436Z,986.98
2018-04-15T17:21:46.263Z,986.90
2018-04-15T17:22:46.177Z,986.90
2018-04-15T17:24:39.053Z,986.82
2018-04-15T17:25:38.934Z,986.80
2018-04-15T17:27:31.803Z,986.85
2018-04-15T17:28:31.689Z,986.88
2018-04-15T17:30:24.544Z,986.91
2018-04-15T17:31:24.449Z,986.90
2018-04-15T17:33:17.266Z,986.87
2018-04-15T17:34:17.190Z,986.93
2018-04-15T17:36:10.051Z,986.91
2018-04-15T17:37:09.975Z,986.96
2018-04-15T17:39:02.791Z,986.93
2018-04-15T17:40:02.694Z,986.93
2018-04-15T17:41:55.972Z,986.95
2018-04-15T17:42:55.864Z,986.97
2018-04-15T17:44:48.715Z,986.93
2018-04-15T17:45:48.597Z,986.93
2018-04-15T17:47:41.440Z,986.99
2018-04-15T17:48:41.335Z,986.98
2018-04-15T17:50:34.205Z,986.94
2018-04-15T17:51:34.107Z,986.92
2018-04-15T17:53:26.950Z,986.92
2018-04-15T17:54:26.842Z,986.96
2018-04-15T17:56:19.669Z,986.99
2018-04-15T17:57:19.582Z,987.03
2018-04-15T17:59:12.476Z,987.01
2018-04-15T18:00:12.390Z,987.02